sensor_id;sensor_type;location;lat;lon;timestamp;pressure;altitude;pressure_sealevel;temperature;humidity
43364;BME280;40636;52.424;-1.948;2023-07-30T00:02:19;98973.53;;;13.79;100.00
43364;BME280;40636;52.424;-1.948;2023-07-30T00:04:46;98968.59;;;13.76;100.00
43364;BME280;40636;52.424;-1.948;2023-07-30T00:07:13;98965.31;;;13.74;100.00
43364;BME280;40636;52.424;-1.948;2023-07-30T00:09:40;98962.63;;;13.68;100.00
43364;BME280;40636;52.424;-1.948;2023-07-30T00:12:08;98973.41;;;13.65;100.00
43364;BME280;40636;52.424;-1.948;2023-07-30T00:14:35;98974.31;;;13.60;100.00
43364;BME280;40636;52.424;-1.948;2023-07-30T00:17:02;98984.28;;;13.56;100.00
43364;BME280;40636;52.424;-1.948;2023-07-30T00:19:29;98992.53;;;13.56;100.00
43364;BME280;40636;52.424;-1.948;2023-07-30T00:21:56;98987.56;;;13.58;100.00
43364;BME280;40636;52.424;-1.948;2023-07-30T00:24:22;98990.91;;;13.55;100.00
43364;BME280;40636;52.424;-1.948;2023-07-30T00:26:50;98982.56;;;13.60;100.00
43364;BME280;40636;52.424;-1.948;2023-07-30T00:29:16;98989.28;;;13.54;100.00
43364;BME280;40636;52.424;-1.948;2023-07-30T00:31:43;98987.59;;;13.53;100.00
43364;BME280;40636;52.424;-1.948;2023-07-30T00:34:10;98994.31;;;13.47;100.00
43364;BME280;40636;52.424;-1.948;2023-07-30T00:36:37;98994.06;;;13.43;100.00
43364;BME280;40636;52.424;-1.948;2023-07-30T00:39:03;98991.59;;;13.42;100.00
43364;BME280;40636;52.424;-1.948;2023-07-30T00:41:30;98996.06;;;13.38;100.00
43364;BME280;40636;52.424;-1.948;2023-07-30T00:43:57;98983.91;;;13.39;100.00
43364;BME280;40636;52.424;-1.948;2023-07-30T00:46:24;98998.81;;;13.38;100.00
43364;BME280;40636;52.424;-1.948;2023-07-30T00:48:51;98998.81;;;13.38;100.00
43364;BME280;40636;52.424;-1.948;2023-07-30T00:51:19;99002.75;;;13.32;100.00
43364;BME280;40636;52.424;-1.948;2023-07-30T00:53:46;99001.69;;;13.28;100.00
43364;BME280;40636;52.424;-1.948;2023-07-30T00:56:13;98992.34;;;13.24;100.00
43364;BME280;40636;52.424;-1.948;2023-07-30T00:58:40;98995.41;;;13.17;100.00
43364;BME280;40636;52.424;-1.948;2023-07-30T01:01:07;98989.31;;;13.20;100.00
43364;BME280;40636;52.424;-1.948;2023-07-30T01:03:34;98992.66;;;13.22;100.00
43364;BME280;40636;52.424;-1.948;2023-07-30T01:06:01;98988.78;;;13.23;100.00
43364;BME280;40636;52.424;-1.948;2023-07-30T01:08:28;98981.84;;;13.26;100.00
43364;BME280;40636;52.424;-1.948;2023-07-30T01:10:56;98985.16;;;13.28;100.00
43364;BME280;40636;52.424;-1.948;2023-07-30T01:13:23;98984.84;;;13.29;100.00
43364;BME280;40636;52.424;-1.948;2023-07-30T01:15:50;98974.38;;;13.31;100.00
43364;BME280;40636;52.424;-1.948;2023-07-30T01:18:17;98988.16;;;13.31;100.00
43364;BME280;40636;52.424;-1.948;2023-07-30T01:20:44;98986.72;;;13.34;100.00
43364;BME280;40636;52.424;-1.948;2023-07-30T01:23:11;98988.91;;;13.37;100.00
43364;BME280;40636;52.424;-1.948;2023-07-30T01:25:39;98993.31;;;13.38;100.00
43364;BME280;40636;52.424;-1.948;2023-07-30T01:28:07;99003.75;;;13.41;100.00
43364;BME280;40636;52.424;-1.948;2023-07-30T01:30:40;98998.75;;;13.43;100.00
43364;BME280;40636;52.424;-1.948;2023-07-30T01:33:10;99002.56;;;13.47;100.00
43364;BME280;40636;52.424;-1.948;2023-07-30T01:35:38;99011.91;;;13.51;100.00
43364;BME280;40636;52.424;-1.948;2023-07-30T01:38:06;99009.91;;;13.57;100.00
43364;BME280;40636;52.424;-1.948;2023-07-30T01:40:33;99017.91;;;13.58;100.00
43364;BME280;40636;52.424;-1.948;2023-07-30T01:42:59;99016.13;;;13.67;100.00
43364;BME280;40636;52.424;-1.948;2023-07-30T01:45:26;99012.25;;;13.68;100.00
43364;BME280;40636;52.424;-1.948;2023-07-30T01:47:53;99013.38;;;13.67;100.00
43364;BME280;40636;52.424;-1.948;2023-07-30T01:50:19;99016.16;;;13.62;100.00
43364;BME280;40636;52.424;-1.948;2023-07-30T01:52:46;99016.47;;;13.61;100.00
43364;BME280;40636;52.424;-1.948;2023-07-30T01:55:13;99018.41;;;13.60;100.00
43364;BME280;40636;52.424;-1.948;2023-07-30T01:57:40;99016.84;;;13.54;100.00
43364;BME280;40636;52.424;-1.948;2023-07-30T02:00:07;99010.50;;;13.54;100.00
43364;BME280;40636;52.424;-1.948;2023-07-30T02:02:34;99022.34;;;13.54;100.00
43364;BME280;40636;52.424;-1.948;2023-07-30T02:05:02;99027.88;;;13.54;100.00
43364;BME280;40636;52.424;-1.948;2023-07-30T02:07:29;99039.09;;;13.58;100.00
43364;BME280;40636;52.424;-1.948;2023-07-30T02:09:56;99038.53;;;13.61;100.00
43364;BME280;40636;52.424;-1.948;2023-07-30T02:12:23;99038.59;;;13.56;100.00
43364;BME280;40636;52.424;-1.948;2023-07-30T02:14:49;99026.44;;;13.57;100.00
43364;BME280;40636;52.424;-1.948;2023-07-30T02:17:16;99038.06;;;13.54;100.00
43364;BME280;40636;52.424;-1.948;2023-07-30T02:19:43;99042.28;;;13.46;100.00
43364;BME280;40636;52.424;-1.948;2023-07-30T02:22:10;99043.97;;;13.42;100.00
43364;BME280;40636;52.424;-1.948;2023-07-30T02:24:36;99030.19;;;13.42;100.00
43364;BME280;40636;52.424;-1.948;2023-07-30T02:27:03;99029.38;;;13.41;100.00
43364;BME280;40636;52.424;-1.948;2023-07-30T02:29:30;99030.75;;;13.39;100.00
43364;BME280;40636;52.424;-1.948;2023-07-30T02:31:57;99032.44;;;13.40;100.00
43364;BME280;40636;52.424;-1.948;2023-07-30T02:34:26;99025.84;;;13.36;100.00
43364;BME280;40636;52.424;-1.948;2023-07-30T02:36:53;99027.19;;;13.38;100.00
43364;BME280;40636;52.424;-1.948;2023-07-30T02:39:19;99021.97;;;13.37;100.00
43364;BME280;40636;52.424;-1.948;2023-07-30T02:41:47;99027.25;;;13.33;100.00
43364;BME280;40636;52.424;-1.948;2023-07-30T02:44:13;99022.31;;;13.30;100.00
43364;BME280;40636;52.424;-1.948;2023-07-30T02:46:40;99023.22;;;13.20;100.00
43364;BME280;40636;52.424;-1.948;2023-07-30T02:49:07;99021.56;;;13.19;100.00
43364;BME280;40636;52.424;-1.948;2023-07-30T02:51:35;99028.25;;;13.13;100.00
43364;BME280;40636;52.424;-1.948;2023-07-30T02:54:06;99031.06;;;13.08;100.00
43364;BME280;40636;52.424;-1.948;2023-07-30T02:56:33;99026.94;;;13.06;100.00
43364;BME280;40636;52.424;-1.948;2023-07-30T02:59:01;99017.03;;;13.05;100.00
43364;BME280;40636;52.424;-1.948;2023-07-30T03:01:27;99018.16;;;13.04;100.00
43364;BME280;40636;52.424;-1.948;2023-07-30T03:03:54;99018.41;;;13.02;100.00
43364;BME280;40636;52.424;-1.948;2023-07-30T03:06:21;99014.03;;;13.01;100.00
43364;BME280;40636;52.424;-1.948;2023-07-30T03:08:48;99006.59;;;13.02;100.00
43364;BME280;40636;52.424;-1.948;2023-07-30T03:11:15;99008.00;;;12.99;100.00
43364;BME280;40636;52.424;-1.948;2023-07-30T03:13:42;99011.28;;;13.01;100.00
43364;BME280;40636;52.424;-1.948;2023-07-30T03:16:08;99011.84;;;12.98;100.00
43364;BME280;40636;52.424;-1.948;2023-07-30T03:18:35;99008.03;;;12.94;100.00
43364;BME280;40636;52.424;-1.948;2023-07-30T03:21:02;99006.38;;;12.93;100.00
43364;BME280;40636;52.424;-1.948;2023-07-30T03:23:30;99009.44;;;12.91;100.00
43364;BME280;40636;52.424;-1.948;2023-07-30T03:25:58;99017.16;;;12.89;100.00
43364;BME280;40636;52.424;-1.948;2023-07-30T03:28:26;99006.50;;;12.83;100.00
43364;BME280;40636;52.424;-1.948;2023-07-30T03:30:53;99013.13;;;12.82;100.00
43364;BME280;40636;52.424;-1.948;2023-07-30T03:33:20;99020.31;;;12.78;100.00
43364;BME280;40636;52.424;-1.948;2023-07-30T03:35:47;99007.66;;;12.77;100.00
43364;BME280;40636;52.424;-1.948;2023-07-30T03:38:13;99004.59;;;12.78;100.00
43364;BME280;40636;52.424;-1.948;2023-07-30T03:40:40;99015.06;;;12.76;100.00
43364;BME280;40636;52.424;-1.948;2023-07-30T03:43:07;99012.84;;;12.78;100.00
43364;BME280;40636;52.424;-1.948;2023-07-30T03:45:34;99018.66;;;12.77;100.00
43364;BME280;40636;52.424;-1.948;2023-07-30T03:48:00;99019.53;;;12.72;100.00
43364;BME280;40636;52.424;-1.948;2023-07-30T03:50:27;99026.97;;;12.66;100.00
43364;BME280;40636;52.424;-1.948;2023-07-30T03:52:54;99025.38;;;12.60;100.00
43364;BME280;40636;52.424;-1.948;2023-07-30T03:55:20;99017.13;;;12.60;100.00
43364;BME280;40636;52.424;-1.948;2023-07-30T03:57:47;99021.50;;;12.61;100.00
43364;BME280;40636;52.424;-1.948;2023-07-30T04:00:14;99015.75;;;12.63;100.00
43364;BME280;40636;52.424;-1.948;2023-07-30T04:02:41;99017.38;;;12.64;100.00
43364;BME280;40636;52.424;-1.948;2023-07-30T04:05:08;99029.25;;;12.59;100.00
43364;BME280;40636;52.424;-1.948;2023-07-30T04:07:34;99024.56;;;12.60;100.00
43364;BME280;40636;52.424;-1.948;2023-07-30T04:10:05;99030.06;;;12.60;100.00
43364;BME280;40636;52.424;-1.948;2023-07-30T04:12:31;99041.34;;;12.63;100.00
43364;BME280;40636;52.424;-1.948;2023-07-30T04:14:58;99033.91;;;12.64;100.00
43364;BME280;40636;52.424;-1.948;2023-07-30T04:17:25;99038.59;;;12.63;100.00
43364;BME280;40636;52.424;-1.948;2023-07-30T04:19:52;99041.91;;;12.60;100.00
43364;BME280;40636;52.424;-1.948;2023-07-30T04:22:19;99048.72;;;12.68;100.00
43364;BME280;40636;52.424;-1.948;2023-07-30T04:24:45;99049.50;;;12.74;100.00
43364;BME280;40636;52.424;-1.948;2023-07-30T04:27:12;99047.53;;;12.79;100.00
43364;BME280;40636;52.424;-1.948;2023-07-30T04:29:39;99048.31;;;12.85;100.00
43364;BME280;40636;52.424;-1.948;2023-07-30T04:32:06;99047.19;;;12.91;100.00
43364;BME280;40636;52.424;-1.948;2023-07-30T04:34:33;99049.88;;;12.96;100.00
43364;BME280;40636;52.424;-1.948;2023-07-30T04:36:59;99058.66;;;12.98;100.00
43364;BME280;40636;52.424;-1.948;2023-07-30T04:39:26;99058.09;;;13.01;100.00
43364;BME280;40636;52.424;-1.948;2023-07-30T04:41:53;99061.66;;;13.02;100.00
43364;BME280;40636;52.424;-1.948;2023-07-30T04:44:20;99064.69;;;13.05;100.00
43364;BME280;40636;52.424;-1.948;2023-07-30T04:46:46;99069.63;;;13.08;100.00
43364;BME280;40636;52.424;-1.948;2023-07-30T04:49:13;99065.16;;;13.12;100.00
43364;BME280;40636;52.424;-1.948;2023-07-30T04:51:40;99064.59;;;13.15;100.00
43364;BME280;40636;52.424;-1.948;2023-07-30T04:54:07;99075.84;;;13.19;100.00
43364;BME280;40636;52.424;-1.948;2023-07-30T04:56:33;99065.09;;;13.23;100.00
43364;BME280;40636;52.424;-1.948;2023-07-30T04:59:01;99068.34;;;13.30;100.00
43364;BME280;40636;52.424;-1.948;2023-07-30T05:01:28;99065.00;;;13.33;100.00
43364;BME280;40636;52.424;-1.948;2023-07-30T05:03:55;99068.88;;;13.32;100.00
43364;BME280;40636;52.424;-1.948;2023-07-30T05:06:22;99074.97;;;13.29;100.00
43364;BME280;40636;52.424;-1.948;2023-07-30T05:08:49;99076.84;;;13.33;100.00
43364;BME280;40636;52.424;-1.948;2023-07-30T05:11:16;99076.03;;;13.33;100.00
43364;BME280;40636;52.424;-1.948;2023-07-30T05:13:43;99081.03;;;13.31;100.00
43364;BME280;40636;52.424;-1.948;2023-07-30T05:16:10;99076.34;;;13.31;100.00
43364;BME280;40636;52.424;-1.948;2023-07-30T05:18:36;99079.91;;;13.32;100.00
43364;BME280;40636;52.424;-1.948;2023-07-30T05:21:03;99072.97;;;13.34;100.00
43364;BME280;40636;52.424;-1.948;2023-07-30T05:23:30;99065.56;;;13.30;100.00
43364;BME280;40636;52.424;-1.948;2023-07-30T05:25:56;99071.59;;;13.37;100.00
43364;BME280;40636;52.424;-1.948;2023-07-30T05:28:23;99072.06;;;13.44;100.00
43364;BME280;40636;52.424;-1.948;2023-07-30T05:30:50;99070.41;;;13.43;100.00
43364;BME280;40636;52.424;-1.948;2023-07-30T05:33:17;99075.06;;;13.48;100.00
43364;BME280;40636;52.424;-1.948;2023-07-30T05:35:43;99077.22;;;13.51;100.00
43364;BME280;40636;52.424;-1.948;2023-07-30T05:38:12;99084.31;;;13.57;100.00
43364;BME280;40636;52.424;-1.948;2023-07-30T05:40:38;99083.22;;;13.58;100.00
43364;BME280;40636;52.424;-1.948;2023-07-30T05:43:05;99083.22;;;13.58;100.00
43364;BME280;40636;52.424;-1.948;2023-07-30T05:45:34;99075.47;;;13.60;100.00
43364;BME280;40636;52.424;-1.948;2023-07-30T05:48:01;99077.38;;;13.64;100.00
43364;BME280;40636;52.424;-1.948;2023-07-30T05:50:28;99079.00;;;13.65;100.00
43364;BME280;40636;52.424;-1.948;2023-07-30T05:52:54;99076.50;;;13.69;100.00
43364;BME280;40636;52.424;-1.948;2023-07-30T05:55:21;99085.22;;;13.76;100.00
43364;BME280;40636;52.424;-1.948;2023-07-30T05:57:48;99100.91;;;13.81;100.00
43364;BME280;40636;52.424;-1.948;2023-07-30T06:00:15;99094.72;;;13.89;100.00
43364;BME280;40636;52.424;-1.948;2023-07-30T06:02:41;99092.16;;;13.98;100.00
43364;BME280;40636;52.424;-1.948;2023-07-30T06:05:08;99087.34;;;14.08;100.00
43364;BME280;40636;52.424;-1.948;2023-07-30T06:07:35;99106.06;;;14.11;100.00
43364;BME280;40636;52.424;-1.948;2023-07-30T06:10:02;99102.13;;;14.17;100.00
43364;BME280;40636;52.424;-1.948;2023-07-30T06:12:29;99103.78;;;14.18;100.00
43364;BME280;40636;52.424;-1.948;2023-07-30T06:14:55;99108.03;;;14.30;100.00
43364;BME280;40636;52.424;-1.948;2023-07-30T06:17:22;99114.53;;;14.39;100.00
43364;BME280;40636;52.424;-1.948;2023-07-30T06:19:49;99118.66;;;14.41;100.00
43364;BME280;40636;52.424;-1.948;2023-07-30T06:22:16;99117.16;;;14.54;100.00
43364;BME280;40636;52.424;-1.948;2023-07-30T06:24:43;99123.09;;;14.61;100.00
43364;BME280;40636;52.424;-1.948;2023-07-30T06:27:10;99126.69;;;14.62;100.00
43364;BME280;40636;52.424;-1.948;2023-07-30T06:29:36;99126.91;;;14.65;100.00
43364;BME280;40636;52.424;-1.948;2023-07-30T06:32:04;99130.25;;;14.62;100.00
43364;BME280;40636;52.424;-1.948;2023-07-30T06:34:30;99138.13;;;14.74;100.00
43364;BME280;40636;52.424;-1.948;2023-07-30T06:36:57;99133.41;;;14.75;100.00
43364;BME280;40636;52.424;-1.948;2023-07-30T06:39:24;99135.50;;;14.83;100.00
43364;BME280;40636;52.424;-1.948;2023-07-30T06:41:51;99136.56;;;14.87;100.00
43364;BME280;40636;52.424;-1.948;2023-07-30T06:44:18;99123.47;;;14.92;100.00
43364;BME280;40636;52.424;-1.948;2023-07-30T06:46:44;99121.25;;;14.94;100.00
43364;BME280;40636;52.424;-1.948;2023-07-30T06:49:11;99125.78;;;15.04;100.00
43364;BME280;40636;52.424;-1.948;2023-07-30T06:51:38;99121.44;;;14.98;100.00
43364;BME280;40636;52.424;-1.948;2023-07-30T06:54:05;99119.88;;;15.11;100.00
43364;BME280;40636;52.424;-1.948;2023-07-30T06:56:32;99117.25;;;15.19;100.00
43364;BME280;40636;52.424;-1.948;2023-07-30T06:58:59;99117.38;;;15.28;100.00
43364;BME280;40636;52.424;-1.948;2023-07-30T07:01:25;99119.97;;;15.38;100.00
43364;BME280;40636;52.424;-1.948;2023-07-30T07:03:52;99116.53;;;15.46;100.00
43364;BME280;40636;52.424;-1.948;2023-07-30T07:06:19;99115.28;;;15.53;100.00
43364;BME280;40636;52.424;-1.948;2023-07-30T07:08:46;99115.72;;;15.60;100.00
43364;BME280;40636;52.424;-1.948;2023-07-30T07:11:12;99118.97;;;15.67;100.00
43364;BME280;40636;52.424;-1.948;2023-07-30T07:13:39;99122.34;;;15.64;100.00
43364;BME280;40636;52.424;-1.948;2023-07-30T07:16:06;99127.56;;;15.65;100.00
43364;BME280;40636;52.424;-1.948;2023-07-30T07:18:33;99126.34;;;15.71;100.00
43364;BME280;40636;52.424;-1.948;2023-07-30T07:20:59;99125.97;;;15.92;100.00
43364;BME280;40636;52.424;-1.948;2023-07-30T07:23:26;99130.78;;;16.00;100.00
43364;BME280;40636;52.424;-1.948;2023-07-30T07:25:53;99124.34;;;16.05;100.00
43364;BME280;40636;52.424;-1.948;2023-07-30T07:28:19;99132.94;;;16.17;100.00
43364;BME280;40636;52.424;-1.948;2023-07-30T07:30:46;99127.69;;;16.29;100.00
43364;BME280;40636;52.424;-1.948;2023-07-30T07:33:14;99149.75;;;16.20;100.00
43364;BME280;40636;52.424;-1.948;2023-07-30T07:35:41;99145.94;;;16.30;100.00
43364;BME280;40636;52.424;-1.948;2023-07-30T07:38:08;99144.63;;;16.28;100.00
43364;BME280;40636;52.424;-1.948;2023-07-30T07:40:38;99154.34;;;16.39;100.00
43364;BME280;40636;52.424;-1.948;2023-07-30T07:43:08;99156.81;;;16.54;100.00
43364;BME280;40636;52.424;-1.948;2023-07-30T07:45:35;99170.78;;;16.49;100.00
43364;BME280;40636;52.424;-1.948;2023-07-30T07:48:02;99163.69;;;16.43;100.00
43364;BME280;40636;52.424;-1.948;2023-07-30T07:50:29;99160.41;;;16.41;100.00
43364;BME280;40636;52.424;-1.948;2023-07-30T07:52:56;99159.47;;;16.59;100.00
43364;BME280;40636;52.424;-1.948;2023-07-30T07:55:22;99164.31;;;16.67;100.00
43364;BME280;40636;52.424;-1.948;2023-07-30T07:57:49;99150.88;;;16.47;100.00
43364;BME280;40636;52.424;-1.948;2023-07-30T08:00:17;99176.94;;;16.46;100.00
43364;BME280;40636;52.424;-1.948;2023-07-30T08:02:44;99177.63;;;16.65;100.00
43364;BME280;40636;52.424;-1.948;2023-07-30T08:05:14;99175.78;;;16.74;100.00
43364;BME280;40636;52.424;-1.948;2023-07-30T08:07:44;99177.22;;;16.86;100.00
43364;BME280;40636;52.424;-1.948;2023-07-30T08:10:12;99181.41;;;16.97;100.00
43364;BME280;40636;52.424;-1.948;2023-07-30T08:12:38;99174.75;;;17.20;100.00
43364;BME280;40636;52.424;-1.948;2023-07-30T08:15:05;99179.81;;;17.18;100.00
43364;BME280;40636;52.424;-1.948;2023-07-30T08:17:32;99166.81;;;17.05;100.00
43364;BME280;40636;52.424;-1.948;2023-07-30T08:19:59;99187.91;;;17.15;100.00
43364;BME280;40636;52.424;-1.948;2023-07-30T08:22:26;99181.69;;;17.09;100.00
43364;BME280;40636;52.424;-1.948;2023-07-30T08:24:53;99181.69;;;17.09;100.00
43364;BME280;40636;52.424;-1.948;2023-07-30T08:27:19;99192.06;;;17.04;100.00
43364;BME280;40636;52.424;-1.948;2023-07-30T08:29:46;99181.69;;;17.09;100.00
43364;BME280;40636;52.424;-1.948;2023-07-30T08:32:13;99179.81;;;17.18;100.00
43364;BME280;40636;52.424;-1.948;2023-07-30T08:34:39;99179.94;;;17.36;100.00
43364;BME280;40636;52.424;-1.948;2023-07-30T08:37:06;99181.06;;;17.35;100.00
43364;BME280;40636;52.424;-1.948;2023-07-30T08:39:33;99174.91;;;17.38;100.00
43364;BME280;40636;52.424;-1.948;2023-07-30T08:42:00;99183.28;;;17.46;100.00
43364;BME280;40636;52.424;-1.948;2023-07-30T08:44:27;99175.59;;;17.66;100.00
43364;BME280;40636;52.424;-1.948;2023-07-30T08:46:53;99173.75;;;17.84;100.00
43364;BME280;40636;52.424;-1.948;2023-07-30T08:49:21;99175.63;;;17.97;100.00
43364;BME280;40636;52.424;-1.948;2023-07-30T08:51:52;99172.28;;;18.09;100.00
43364;BME280;40636;52.424;-1.948;2023-07-30T08:54:20;99173.50;;;18.34;100.00
43364;BME280;40636;52.424;-1.948;2023-07-30T08:56:49;99166.91;;;18.61;100.00
43364;BME280;40636;52.424;-1.948;2023-07-30T08:59:16;99162.88;;;18.75;100.00
43364;BME280;40636;52.424;-1.948;2023-07-30T09:01:44;99167.63;;;18.84;100.00
43364;BME280;40636;52.424;-1.948;2023-07-30T09:04:15;99179.91;;;18.83;100.00
43364;BME280;40636;52.424;-1.948;2023-07-30T09:06:43;99184.03;;;18.45;100.00
43364;BME280;40636;52.424;-1.948;2023-07-30T09:09:11;99173.81;;;18.23;100.00
43364;BME280;40636;52.424;-1.948;2023-07-30T09:11:38;99173.03;;;18.32;100.00
43364;BME280;40636;52.424;-1.948;2023-07-30T09:14:06;99180.78;;;18.61;100.00
43364;BME280;40636;52.424;-1.948;2023-07-30T09:16:33;99174.66;;;18.72;100.00
43364;BME280;40636;52.424;-1.948;2023-07-30T09:19:00;99183.16;;;18.85;100.00
43364;BME280;40636;52.424;-1.948;2023-07-30T09:21:31;99169.28;;;19.02;100.00
43364;BME280;40636;52.424;-1.948;2023-07-30T09:24:01;99168.97;;;19.21;100.00
43364;BME280;40636;52.424;-1.948;2023-07-30T09:26:43;99177.50;;;19.33;100.00
43364;BME280;40636;52.424;-1.948;2023-07-30T09:29:13;99181.91;;;19.43;100.00
43364;BME280;40636;52.424;-1.948;2023-07-30T09:31:46;99175.38;;;19.65;100.00
43364;BME280;40636;52.424;-1.948;2023-07-30T09:34:18;99183.25;;;19.71;100.00
43364;BME280;40636;52.424;-1.948;2023-07-30T09:36:45;99187.81;;;19.50;100.00
43364;BME280;40636;52.424;-1.948;2023-07-30T09:41:51;99183.56;;;19.18;100.00
43364;BME280;40636;52.424;-1.948;2023-07-30T09:44:20;99191.91;;;19.26;100.00
43364;BME280;40636;52.424;-1.948;2023-07-30T09:46:49;99189.44;;;19.34;100.00
43364;BME280;40636;52.424;-1.948;2023-07-30T09:49:17;99195.34;;;19.23;100.00
43364;BME280;40636;52.424;-1.948;2023-07-30T09:51:44;99198.59;;;19.08;100.00
43364;BME280;40636;52.424;-1.948;2023-07-30T09:54:12;99185.69;;;19.12;100.00
43364;BME280;40636;52.424;-1.948;2023-07-30T09:56:41;99194.00;;;19.04;100.00
43364;BME280;40636;52.424;-1.948;2023-07-30T09:59:09;99185.00;;;19.15;100.00
43364;BME280;40636;52.424;-1.948;2023-07-30T10:01:41;99182.41;;;19.45;100.00
43364;BME280;40636;52.424;-1.948;2023-07-30T10:04:11;99178.13;;;19.82;100.00
43364;BME280;40636;52.424;-1.948;2023-07-30T10:06:42;99178.53;;;20.10;100.00
43364;BME280;40636;52.424;-1.948;2023-07-30T10:09:12;99179.31;;;20.19;100.00
43364;BME280;40636;52.424;-1.948;2023-07-30T10:11:39;99198.38;;;20.09;100.00
43364;BME280;40636;52.424;-1.948;2023-07-30T10:14:08;99196.97;;;19.59;100.00
43364;BME280;40636;52.424;-1.948;2023-07-30T10:16:35;99194.00;;;19.30;100.00
43364;BME280;40636;52.424;-1.948;2023-07-30T10:19:02;99187.63;;;19.20;100.00
43364;BME280;40636;52.424;-1.948;2023-07-30T10:21:31;99186.50;;;19.13;100.00
43364;BME280;40636;52.424;-1.948;2023-07-30T10:24:03;99192.06;;;19.21;100.00
43364;BME280;40636;52.424;-1.948;2023-07-30T10:26:35;99186.81;;;19.29;100.00
43364;BME280;40636;52.424;-1.948;2023-07-30T10:29:17;99187.47;;;19.25;100.00
43364;BME280;40636;52.424;-1.948;2023-07-30T10:31:54;99176.69;;;19.33;100.00
43364;BME280;40636;52.424;-1.948;2023-07-30T10:34:25;99176.53;;;19.64;100.00
43364;BME280;40636;52.424;-1.948;2023-07-30T10:36:55;99186.28;;;19.96;100.00
43364;BME280;40636;52.424;-1.948;2023-07-30T10:39:28;99187.56;;;20.07;100.00
43364;BME280;40636;52.424;-1.948;2023-07-30T10:41:58;99182.84;;;19.99;100.00
43364;BME280;40636;52.424;-1.948;2023-07-30T10:44:33;99187.28;;;19.91;100.00
43364;BME280;40636;52.424;-1.948;2023-07-30T10:47:02;99192.38;;;19.81;100.00
43364;BME280;40636;52.424;-1.948;2023-07-30T10:49:37;99187.66;;;19.72;100.00
43364;BME280;40636;52.424;-1.948;2023-07-30T10:52:07;99193.69;;;19.74;100.00
43364;BME280;40636;52.424;-1.948;2023-07-30T10:54:34;99196.81;;;19.64;100.00
43364;BME280;40636;52.424;-1.948;2023-07-30T10:57:02;99193.03;;;19.51;100.00
43364;BME280;40636;52.424;-1.948;2023-07-30T10:59:37;99208.44;;;19.49;100.00
43364;BME280;40636;52.424;-1.948;2023-07-30T11:02:04;99206.97;;;19.60;100.00
43364;BME280;40636;52.424;-1.948;2023-07-30T11:04:34;99196.66;;;19.69;100.00
43364;BME280;40636;52.424;-1.948;2023-07-30T11:07:01;99196.97;;;19.59;100.00
43364;BME280;40636;52.424;-1.948;2023-07-30T11:09:30;99203.53;;;19.46;100.00
43364;BME280;40636;52.424;-1.948;2023-07-30T11:11:57;99225.13;;;19.40;100.00
43364;BME280;40636;52.424;-1.948;2023-07-30T11:14:25;99223.16;;;19.23;100.00
43364;BME280;40636;52.424;-1.948;2023-07-30T11:16:57;99225.91;;;19.06;100.00
43364;BME280;40636;52.424;-1.948;2023-07-30T11:19:28;99230.31;;;19.16;100.00
43364;BME280;40636;52.424;-1.948;2023-07-30T11:21:56;99223.47;;;19.13;100.00
43364;BME280;40636;52.424;-1.948;2023-07-30T11:24:34;99215.94;;;19.05;100.00
43364;BME280;40636;52.424;-1.948;2023-07-30T11:27:01;99213.94;;;18.97;100.00
43364;BME280;40636;52.424;-1.948;2023-07-30T11:29:29;99220.00;;;18.90;100.00
43364;BME280;40636;52.424;-1.948;2023-07-30T11:31:57;99217.84;;;18.87;100.00
43364;BME280;40636;52.424;-1.948;2023-07-30T11:34:26;99217.19;;;18.82;100.00
43364;BME280;40636;52.424;-1.948;2023-07-30T11:36:54;99215.41;;;18.86;100.00
43364;BME280;40636;52.424;-1.948;2023-07-30T11:39:23;99211.44;;;18.78;100.00
43364;BME280;40636;52.424;-1.948;2023-07-30T11:41:50;99218.97;;;18.78;100.00
43364;BME280;40636;52.424;-1.948;2023-07-30T11:44:37;99215.47;;;18.63;100.00
43364;BME280;40636;52.424;-1.948;2023-07-30T11:47:07;99214.78;;;18.49;100.00
43364;BME280;40636;52.424;-1.948;2023-07-30T11:49:35;99202.81;;;18.48;100.00
43364;BME280;40636;52.424;-1.948;2023-07-30T11:52:10;99213.78;;;18.45;100.00
43364;BME280;40636;52.424;-1.948;2023-07-30T11:54:37;99223.22;;;18.35;100.00
43364;BME280;40636;52.424;-1.948;2023-07-30T11:57:04;99223.66;;;18.29;100.00
43364;BME280;40636;52.424;-1.948;2023-07-30T11:59:31;99221.88;;;18.33;100.00
43364;BME280;40636;52.424;-1.948;2023-07-30T12:01:59;99222.78;;;18.50;100.00
43364;BME280;40636;52.424;-1.948;2023-07-30T12:04:31;99219.00;;;18.46;100.00
43364;BME280;40636;52.424;-1.948;2023-07-30T12:06:58;99213.78;;;18.45;100.00
43364;BME280;40636;52.424;-1.948;2023-07-30T12:09:24;99209.66;;;18.42;100.00
43364;BME280;40636;52.424;-1.948;2023-07-30T12:11:59;99213.78;;;18.45;100.00
43364;BME280;40636;52.424;-1.948;2023-07-30T12:17:13;99220.88;;;18.29;100.00
43364;BME280;40636;52.424;-1.948;2023-07-30T12:19:41;99233.56;;;18.12;100.00
43364;BME280;40636;52.424;-1.948;2023-07-30T12:22:08;99228.69;;;18.18;100.00
43364;BME280;40636;52.424;-1.948;2023-07-30T12:24:35;99229.84;;;18.25;100.00
43364;BME280;40636;52.424;-1.948;2023-07-30T12:27:01;99242.66;;;18.35;100.00
43364;BME280;40636;52.424;-1.948;2023-07-30T12:29:28;99235.00;;;18.41;100.00
43364;BME280;40636;52.424;-1.948;2023-07-30T12:31:55;99246.47;;;18.48;100.00
43364;BME280;40636;52.424;-1.948;2023-07-30T12:34:23;99242.03;;;18.47;100.00
43364;BME280;40636;52.424;-1.948;2023-07-30T12:36:51;99240.41;;;18.46;100.00
43364;BME280;40636;52.424;-1.948;2023-07-30T12:39:17;99239.78;;;18.49;100.00
43364;BME280;40636;52.424;-1.948;2023-07-30T12:41:44;99239.75;;;18.40;100.00
43364;BME280;40636;52.424;-1.948;2023-07-30T12:44:12;99244.72;;;18.30;100.00
43364;BME280;40636;52.424;-1.948;2023-07-30T12:46:39;99236.63;;;18.42;100.00
43364;BME280;40636;52.424;-1.948;2023-07-30T12:49:05;99237.16;;;18.52;100.00